Time;durP1;ratioP1;P1;durP2;ratioP2;P2;SDS_P1;SDS_P2;PMS_P1;PMS_P2;Temp;Humidity;BMP_temperature;BMP_pressure;BME280_temperature;BME280_humidity;BME280_pressure;Samples;Min_cycle;Max_cycle;Signal;HPM_P1;HPM_P2
2021/12/24 00:00:00;;;;;;;;;;;;;;;22.06;18.51;98193.06;4825499;29;917;-74
2021/12/24 00:02:26;;;;;;;;;;;;;;;21.33;19.59;98193.16;4825143;29;1064;-74
2021/12/24 00:04:51;;;;;;;;;;;;;;;21.69;19.12;98186.69;4825301;29;986;-74
2021/12/24 00:07:16;;;;;;;;;;;;;;;21.96;19.00;98177.13;4874114;29;997;-74
2021/12/24 00:09:42;;;;;;;;;;;;;;;21.69;19.17;98181.00;4861703;29;1036;-74
2021/12/24 00:12:14;;;;;;;;;;;;;;;21.04;19.87;98173.19;4861846;29;927;-74
2021/12/24 00:14:48;;;;;;;;;;;;;;;21.53;19.29;98166.84;4792084;29;1030;-74
2021/12/24 00:17:16;;;;;;;;;;;;;;;21.78;19.14;98167.03;4820200;29;1978;-74
2021/12/24 00:35:52;;;;;;;;;;;;;;;22.20;18.52;98133.19;4852229;29;1915;-74
2021/12/24 00:38:18;;;;;;;;;;;;;;;22.13;18.76;98107.91;4879907;29;1037;-74
2021/12/24 00:40:44;;;;;;;;;;;;;;;21.53;19.17;98115.88;4889278;29;1236;-74
2021/12/24 00:43:11;;;;;;;;;;;;;;;21.51;19.36;98118.38;4898848;29;1027;-74
2021/12/24 00:45:37;;;;;;;;;;;;;;;21.69;19.16;98118.72;4925785;29;994;-74
2021/12/24 00:48:03;;;;;;;;;;;;;;;21.83;18.76;98115.53;4936312;29;1248;-74
2021/12/24 00:50:34;;;;;;;;;;;;;;;22.14;18.80;98103.81;4917353;29;1122;-75
2021/12/24 00:53:04;;;;;;;;;;;;;;;22.44;18.25;98107.47;4861199;29;1025;-74
2021/12/24 00:55:31;;;;;;;;;;;;;;;23.02;17.90;98101.72;4861088;29;1982;-74
2021/12/24 00:57:58;;;;;;;;;;;;;;;22.43;18.16;98095.31;4861200;29;1317;-74
2021/12/24 01:00:43;;;;;;;;;;;;;;;21.33;19.34;98082.78;4879778;29;997;-74
2021/12/24 01:03:09;;;;;;;;;;;;;;;21.22;19.78;98096.38;4879362;29;1065;-74
2021/12/24 01:05:35;;;;;;;;;;;;;;;21.40;19.53;98076.16;4879596;29;1006;-74
2021/12/24 01:08:01;;;;;;;;;;;;;;;21.82;19.26;98065.78;4864341;29;1444;-74
2021/12/24 01:10:29;;;;;;;;;;;;;;;21.77;18.84;98063.50;4879594;29;1224;-74
2021/12/24 01:12:54;;;;;;;;;;;;;;;21.84;18.90;98059.66;4879548;29;1029;-74
2021/12/24 01:15:25;;;;;;;;;;;;;;;21.88;18.83;98056.75;4879255;29;1907;-74
2021/12/24 01:18:09;;;;;;;;;;;;;;;21.83;19.03;98055.25;4842476;29;1147;-74
2021/12/24 01:20:46;;;;;;;;;;;;;;;21.76;19.13;98044.91;4808916;29;1196;-74
2021/12/24 01:25:45;;;;;;;;;;;;;;;22.85;18.04;98038.56;4788182;29;1427;-74
2021/12/24 01:28:34;;;;;;;;;;;;;;;21.96;18.91;98035.47;4783973;29;1267;-74
2021/12/24 01:44:27;;;;;;;;;;;;;;;21.82;18.99;98003.47;4773383;30;1041;-74
2021/12/24 01:47:00;;;;;;;;;;;;;;;21.65;19.11;97987.75;4787811;29;1450;-74
2021/12/24 01:49:26;;;;;;;;;;;;;;;21.40;19.63;97988.44;4755205;30;1002;-74
2021/12/24 01:51:51;;;;;;;;;;;;;;;21.84;18.94;97991.69;4754531;30;1117;-74
2021/12/24 01:54:17;;;;;;;;;;;;;;;21.81;19.01;97989.72;4755042;30;1269;-74
2021/12/24 01:56:43;;;;;;;;;;;;;;;22.09;18.61;97982.47;4755281;30;1915;-74
2021/12/24 01:59:08;;;;;;;;;;;;;;;21.88;19.18;97978.22;4781662;30;1137;-74
2021/12/24 02:01:34;;;;;;;;;;;;;;;21.73;19.17;97971.38;4798700;29;1251;-74
2021/12/24 02:03:59;;;;;;;;;;;;;;;21.97;18.86;97964.22;4808756;29;1055;-74
2021/12/24 02:06:25;;;;;;;;;;;;;;;21.95;19.03;97960.22;4808531;29;1561;-74
2021/12/24 02:08:50;;;;;;;;;;;;;;;21.73;18.91;97955.16;4843908;29;1603;-74
2021/12/24 02:11:16;;;;;;;;;;;;;;;21.99;18.77;97960.91;4805216;29;1607;-74
2021/12/24 02:13:41;;;;;;;;;;;;;;;21.17;20.06;97952.59;4805480;29;1091;-74
2021/12/24 02:29:50;;;;;;;;;;;;;;;21.56;19.42;97905.50;4753718;30;1219;-74
2021/12/24 02:32:16;;;;;;;;;;;;;;;21.82;18.97;97900.72;4754764;30;1017;-74
2021/12/24 02:34:41;;;;;;;;;;;;;;;21.05;20.15;97889.03;4754338;30;1295;-74
2021/12/24 02:37:07;;;;;;;;;;;;;;;21.55;19.50;97884.06;4761634;30;1913;-74
2021/12/24 02:39:32;;;;;;;;;;;;;;;21.66;19.21;97884.59;4787042;30;974;-74
2021/12/24 02:42:09;;;;;;;;;;;;;;;20.84;20.45;97877.47;4772013;30;939;-74
2021/12/24 02:44:35;;;;;;;;;;;;;;;21.42;19.58;97888.91;4771740;30;1196;-74
2021/12/24 02:55:00;;;;;;;;;;;;;;;21.25;19.83;97886.09;4786330;30;1638;-74
2021/12/24 02:57:28;;;;;;;;;;;;;;;20.78;20.28;97869.53;4788533;30;1965;-75
2021/12/24 03:00:05;;;;;;;;;;;;;;;21.21;19.74;97870.44;4789318;29;992;-74
2021/12/24 03:02:32;;;;;;;;;;;;;;;21.37;19.70;97872.47;4825898;29;1067;-74
2021/12/24 03:04:58;;;;;;;;;;;;;;;20.93;20.17;97869.16;4818851;29;1302;-74
2021/12/24 03:07:24;;;;;;;;;;;;;;;20.73;20.55;97867.25;4796369;29;1010;-74
2021/12/24 03:09:49;;;;;;;;;;;;;;;20.63;20.63;97848.50;4789413;30;940;-74
2021/12/24 03:12:15;;;;;;;;;;;;;;;20.92;19.98;97859.88;4789284;30;1340;-74
2021/12/24 03:14:42;;;;;;;;;;;;;;;21.03;20.10;97862.41;4800109;29;1151;-74
2021/12/24 03:17:14;;;;;;;;;;;;;;;21.57;19.43;97861.78;4753949;30;1983;-74
2021/12/24 03:19:40;;;;;;;;;;;;;;;20.97;19.96;97855.72;4771387;30;1114;-74
2021/12/24 03:22:32;;;;;;;;;;;;;;;21.24;19.94;97846.91;4787202;29;1532;-74
2021/12/24 03:24:58;;;;;;;;;;;;;;;20.88;20.37;97844.22;4811110;29;1204;-74
2021/12/24 03:27:23;;;;;;;;;;;;;;;22.19;18.97;97844.59;4806970;29;1417;-74
2021/12/24 03:29:50;;;;;;;;;;;;;;;22.75;17.87;97836.25;4807218;29;989;-75
2021/12/24 03:32:15;;;;;;;;;;;;;;;22.42;18.58;97829.25;4791695;29;1237;-75
2021/12/24 03:34:41;;;;;;;;;;;;;;;21.96;18.85;97831.50;4789158;29;1230;-75
2021/12/24 03:37:07;;;;;;;;;;;;;;;21.60;19.52;97826.88;4771764;30;1979;-75
2021/12/24 03:39:34;;;;;;;;;;;;;;;21.89;19.05;97832.50;4788973;29;1142;-76
2021/12/24 03:42:01;;;;;;;;;;;;;;;21.84;19.20;97827.41;4773102;30;1192;-75
2021/12/24 03:44:34;;;;;;;;;;;;;;;21.19;19.66;97831.28;4718240;30;1149;-75
2021/12/24 03:47:10;;;;;;;;;;;;;;;21.18;20.12;97817.56;4724421;30;1224;-75
2021/12/24 03:49:52;;;;;;;;;;;;;;;21.72;19.19;97814.81;4716934;30;1138;-75
2021/12/24 03:54:56;;;;;;;;;;;;;;;21.64;19.40;97809.81;4732578;30;1733;-75
2021/12/24 03:57:22;;;;;;;;;;;;;;;20.97;20.03;97810.47;4748921;30;1969;-75
2021/12/24 04:00:07;;;;;;;;;;;;;;;21.06;20.14;97808.56;4735279;30;1010;-75
2021/12/24 04:02:41;;;;;;;;;;;;;;;21.62;19.54;97800.97;4752744;30;1070;-75
2021/12/24 04:05:36;;;;;;;;;;;;;;;20.22;21.01;97801.84;4717594;30;996;-75
2021/12/24 04:08:20;;;;;;;;;;;;;;;21.12;20.17;97800.34;4717577;30;1026;-75
2021/12/24 04:11:06;;;;;;;;;;;;;;;21.30;19.68;97792.19;4684056;30;1083;-75
2021/12/24 04:13:35;;;;;;;;;;;;;;;21.26;19.97;97790.66;4700264;30;1099;-75
2021/12/24 04:16:01;;;;;;;;;;;;;;;21.04;20.17;97779.16;4685060;30;1912;-75
2021/12/24 04:26:24;;;;;;;;;;;;;;;20.73;20.56;97793.72;4738832;30;1070;-75
2021/12/24 04:28:49;;;;;;;;;;;;;;;20.92;20.30;97799.69;4753019;30;1049;-75
2021/12/24 04:31:16;;;;;;;;;;;;;;;20.93;20.25;97789.94;4714771;30;1099;-75
2021/12/24 04:33:46;;;;;;;;;;;;;;;21.47;19.64;97784.41;4735145;30;1197;-75
2021/12/24 04:36:42;;;;;;;;;;;;;;;21.06;19.96;97790.81;4720513;30;1939;-75
2021/12/24 04:39:31;;;;;;;;;;;;;;;21.20;19.95;97790.41;4733071;30;1128;-75
2021/12/24 05:03:42;;;;;;;;;;;;;;;21.61;19.25;97769.03;4773858;29;1297;-75
2021/12/24 05:06:27;;;;;;;;;;;;;;;21.99;18.99;97756.94;4760553;30;1148;-75
2021/12/24 05:08:57;;;;;;;;;;;;;;;22.47;18.53;97749.31;4776399;30;1220;-75
2021/12/24 05:11:24;;;;;;;;;;;;;;;22.19;18.71;97749.03;4777005;30;1388;-75
2021/12/24 05:13:50;;;;;;;;;;;;;;;21.81;19.30;97752.66;4791677;30;1249;-75
2021/12/24 05:16:43;;;;;;;;;;;;;;;21.55;19.84;97751.00;4843708;29;1922;-75
2021/12/24 05:22:39;;;;;;;;;;;;;;;20.50;20.97;97741.00;4861242;29;1545;-75
2021/12/24 05:25:10;;;;;;;;;;;;;;;21.40;19.87;97732.88;4879166;29;1197;-75
2021/12/24 05:27:37;;;;;;;;;;;;;;;21.44;19.92;97740.00;4845168;29;916;-75
2021/12/24 05:30:03;;;;;;;;;;;;;;;21.20;20.23;97742.31;4845583;29;1219;-75
2021/12/24 05:32:29;;;;;;;;;;;;;;;21.30;20.22;97734.78;4878089;29;1234;-74
2021/12/24 05:34:54;;;;;;;;;;;;;;;21.07;20.33;97738.66;4826907;29;1248;-75
2021/12/24 05:37:19;;;;;;;;;;;;;;;21.50;19.85;97734.56;4808727;29;1967;-75
2021/12/24 05:39:45;;;;;;;;;;;;;;;21.37;20.07;97733.78;4808954;29;855;-75
2021/12/24 05:42:11;;;;;;;;;;;;;;;21.40;19.98;97727.19;4740369;30;1236;-75
2021/12/24 05:44:37;;;;;;;;;;;;;;;21.01;20.08;97735.56;4744425;30;1318;-75
2021/12/24 05:47:14;;;;;;;;;;;;;;;21.31;20.09;97742.81;4755030;30;1407;-75
2021/12/24 05:49:44;;;;;;;;;;;;;;;21.03;20.62;97737.94;4772521;30;1351;-75
2021/12/24 05:52:28;;;;;;;;;;;;;;;21.35;19.98;97733.41;4772622;30;945;-76
2021/12/24 05:55:00;;;;;;;;;;;;;;;21.54;19.54;97732.44;4754649;30;1343;-75
2021/12/24 05:57:27;;;;;;;;;;;;;;;20.27;21.39;97736.34;4740164;30;1916;-75
2021/12/24 05:59:53;;;;;;;;;;;;;;;20.29;21.20;97724.56;4739953;30;1110;-75
2021/12/24 06:02:18;;;;;;;;;;;;;;;21.08;20.51;97734.56;4769691;30;1287;-75
2021/12/24 06:04:44;;;;;;;;;;;;;;;21.53;19.76;97742.19;4753697;30;1046;-75
2021/12/24 06:07:09;;;;;;;;;;;;;;;20.97;20.62;97742.56;4783834;30;953;-75
2021/12/24 06:09:35;;;;;;;;;;;;;;;20.97;20.39;97734.09;4796448;29;993;-75
2021/12/24 06:12:00;;;;;;;;;;;;;;;21.91;19.40;97730.06;4808618;29;1044;-75
2021/12/24 06:14:25;;;;;;;;;;;;;;;22.65;18.51;97723.97;4808375;29;957;-75
2021/12/24 06:17:01;;;;;;;;;;;;;;;22.55;18.56;97719.47;4844722;29;1977;-75
2021/12/24 06:19:26;;;;;;;;;;;;;;;22.00;19.26;97716.03;4844934;29;1109;-75
2021/12/24 06:21:55;;;;;;;;;;;;;;;21.91;19.39;97711.03;4879123;29;1116;-75
2021/12/24 06:24:20;;;;;;;;;;;;;;;21.94;19.27;97700.84;4881898;29;1095;-75
2021/12/24 06:26:46;;;;;;;;;;;;;;;21.19;20.28;97723.75;4913045;29;961;-75
2021/12/24 06:29:12;;;;;;;;;;;;;;;21.72;19.76;97714.91;4922833;29;793;-75
2021/12/24 06:31:37;;;;;;;;;;;;;;;21.83;19.54;97715.38;4955193;29;817;-75
2021/12/24 06:34:03;;;;;;;;;;;;;;;20.80;20.54;97720.00;4959809;29;838;-75
2021/12/24 06:36:31;;;;;;;;;;;;;;;20.97;20.50;97714.28;4959515;29;1910;-73
2021/12/24 06:38:57;;;;;;;;;;;;;;;21.33;19.95;97714.84;4959703;29;882;-73
2021/12/24 06:41:22;;;;;;;;;;;;;;;21.02;20.66;97714.53;4959594;29;780;-72
2021/12/24 06:43:47;;;;;;;;;;;;;;;20.63;20.94;97706.38;4959545;29;866;-73
2021/12/24 06:46:13;;;;;;;;;;;;;;;20.85;20.87;97709.41;4959741;29;866;-72
2021/12/24 06:48:40;;;;;;;;;;;;;;;20.45;20.92;97703.97;4959464;29;799;-73
2021/12/24 06:51:06;;;;;;;;;;;;;;;21.45;20.13;97695.50;4959236;29;867;-72
2021/12/24 06:53:31;;;;;;;;;;;;;;;21.42;19.92;97691.56;4959446;29;854;-73
2021/12/24 06:55:57;;;;;;;;;;;;;;;21.74;19.69;97690.53;4942055;29;2347;-73
2021/12/24 06:58:23;;;;;;;;;;;;;;;21.11;20.31;97694.06;4942130;29;1077;-73
2021/12/24 07:00:51;;;;;;;;;;;;;;;20.70;20.65;97681.50;4958121;29;1385;-73
2021/12/24 07:03:18;;;;;;;;;;;;;;;21.31;20.27;97680.56;4959085;29;851;-73
2021/12/24 07:05:44;;;;;;;;;;;;;;;20.39;21.11;97677.50;4959041;29;696;-73
2021/12/24 07:08:09;;;;;;;;;;;;;;;20.68;21.06;97678.34;4959107;29;942;-72
2021/12/24 07:10:35;;;;;;;;;;;;;;;20.63;21.17;97670.41;4959297;29;790;-73
2021/12/24 07:13:00;;;;;;;;;;;;;;;20.81;20.68;97676.34;4959276;29;853;-73
2021/12/24 07:15:25;;;;;;;;;;;;;;;21.32;20.01;97676.50;4958817;29;1970;-73
2021/12/24 07:17:51;;;;;;;;;;;;;;;20.94;20.30;97672.78;4958802;29;1113;-72
2021/12/24 07:20:16;;;;;;;;;;;;;;;20.72;20.94;97670.53;4958803;29;787;-72
2021/12/24 07:22:42;;;;;;;;;;;;;;;21.05;20.33;97667.59;4937148;29;952;-72
2021/12/24 07:25:07;;;;;;;;;;;;;;;22.04;19.51;97660.03;4955115;29;1079;-72
2021/12/24 07:27:33;;;;;;;;;;;;;;;22.69;18.31;97670.75;4956590;29;801;-72
2021/12/24 07:29:59;;;;;;;;;;;;;;;22.63;18.62;97670.53;4956282;29;851;-73
2021/12/24 07:32:24;;;;;;;;;;;;;;;21.92;19.31;97661.66;4956173;29;929;-73
2021/12/24 07:34:50;;;;;;;;;;;;;;;21.53;19.73;97671.41;4956560;29;807;-72
2021/12/24 07:37:15;;;;;;;;;;;;;;;22.26;19.30;97649.56;4956635;29;1922;-72
2021/12/24 07:39:41;;;;;;;;;;;;;;;22.83;18.17;97661.72;4956647;29;1104;-72
2021/12/24 07:42:06;;;;;;;;;;;;;;;22.04;19.28;97660.84;4956218;29;811;-73
2021/12/24 07:44:35;;;;;;;;;;;;;;;21.81;19.34;97656.34;4940207;29;978;-72
2021/12/24 07:47:02;;;;;;;;;;;;;;;21.70;19.76;97657.91;4956090;29;811;-73
2021/12/24 07:54:31;;;;;;;;;;;;;;;22.10;18.94;97663.88;4956930;29;782;-72
2021/12/24 07:56:57;;;;;;;;;;;;;;;21.55;19.93;97637.75;4941580;29;1899;-73
2021/12/24 07:59:23;;;;;;;;;;;;;;;21.75;19.74;97640.38;4957939;29;1196;-72
2021/12/24 08:01:49;;;;;;;;;;;;;;;22.75;18.53;97632.03;4958373;29;788;-72
2021/12/24 08:04:15;;;;;;;;;;;;;;;23.18;17.85;97647.47;4941020;29;1889;-72
2021/12/24 08:06:41;;;;;;;;;;;;;;;22.80;18.52;97645.63;4958236;29;748;-72
2021/12/24 08:09:07;;;;;;;;;;;;;;;22.15;19.18;97635.00;4958021;29;1250;-73
2021/12/24 08:11:35;;;;;;;;;;;;;;;21.87;19.55;97630.28;4958113;29;835;-72
2021/12/24 08:14:01;;;;;;;;;;;;;;;21.29;20.23;97629.25;4941016;29;741;-73
2021/12/24 08:16:28;;;;;;;;;;;;;;;22.36;19.22;97617.22;4957848;29;1919;-73
2021/12/24 08:18:53;;;;;;;;;;;;;;;22.80;18.64;97622.94;4940856;29;830;-73
2021/12/24 08:21:19;;;;;;;;;;;;;;;22.33;19.10;97635.19;4958127;29;709;-73
2021/12/24 08:23:46;;;;;;;;;;;;;;;21.78;19.79;97628.94;4958983;28;1349;-72
2021/12/24 08:26:12;;;;;;;;;;;;;;;21.92;19.45;97609.88;4977037;28;847;-73
2021/12/24 08:28:40;;;;;;;;;;;;;;;22.27;19.35;97608.66;4979044;28;807;-73
2021/12/24 08:31:06;;;;;;;;;;;;;;;23.08;18.19;97614.63;4979948;28;830;-72
2021/12/24 08:33:33;;;;;;;;;;;;;;;22.52;18.67;97613.41;4981518;28;775;-72
2021/12/24 08:35:59;;;;;;;;;;;;;;;21.63;19.84;97607.19;4981153;28;1906;-73
2021/12/24 08:38:24;;;;;;;;;;;;;;;21.90;19.53;97606.69;4980253;28;806;-73
2021/12/24 08:40:50;;;;;;;;;;;;;;;22.78;18.71;97584.94;4963606;28;742;-72
2021/12/24 08:43:15;;;;;;;;;;;;;;;22.86;18.24;97583.41;4981173;28;751;-72
2021/12/24 08:45:41;;;;;;;;;;;;;;;21.93;19.58;97583.13;4980988;28;728;-73
2021/12/24 08:48:06;;;;;;;;;;;;;;;21.99;19.24;97581.28;4981031;28;804;-72
2021/12/24 08:50:31;;;;;;;;;;;;;;;22.13;19.32;97589.34;4981703;28;696;-72
2021/12/24 08:52:57;;;;;;;;;;;;;;;23.01;18.39;97575.19;4981231;28;795;-72
2021/12/24 08:55:22;;;;;;;;;;;;;;;22.53;18.90;97566.00;4980828;28;1906;-72
2021/12/24 08:57:48;;;;;;;;;;;;;;;22.02;19.29;97569.03;4980509;28;739;-73
2021/12/24 09:00:13;;;;;;;;;;;;;;;21.92;19.78;97558.91;4980815;28;864;-73
2021/12/24 09:02:39;;;;;;;;;;;;;;;22.08;19.67;97572.88;4962579;28;1117;-73
2021/12/24 09:05:10;;;;;;;;;;;;;;;22.81;18.69;97555.66;4959072;29;976;-73
2021/12/24 09:07:36;;;;;;;;;;;;;;;21.99;19.29;97547.31;4959298;29;993;-73
2021/12/24 09:10:02;;;;;;;;;;;;;;;21.63;19.97;97542.88;4959102;29;903;-72
2021/12/24 09:12:28;;;;;;;;;;;;;;;21.77;19.77;97541.59;4959121;29;942;-73
2021/12/24 09:14:55;;;;;;;;;;;;;;;22.59;18.81;97533.78;4958544;29;953;-73
2021/12/24 09:17:21;;;;;;;;;;;;;;;22.40;18.99;97536.94;4959174;29;1970;-72
2021/12/24 09:19:49;;;;;;;;;;;;;;;21.95;19.63;97524.75;4958645;29;794;-73
2021/12/24 09:22:17;;;;;;;;;;;;;;;21.81;19.92;97514.75;4958650;29;826;-73
2021/12/24 09:24:43;;;;;;;;;;;;;;;21.56;20.10;97531.78;4958476;29;1128;-73
2021/12/24 09:27:09;;;;;;;;;;;;;;;21.90;19.90;97522.50;4958861;29;759;-73
2021/12/24 09:29:34;;;;;;;;;;;;;;;21.84;19.48;97518.69;4958723;29;980;-73
2021/12/24 09:32:00;;;;;;;;;;;;;;;21.62;20.09;97520.69;4958616;29;900;-73
2021/12/24 09:34:25;;;;;;;;;;;;;;;21.69;19.93;97507.06;4958739;29;854;-72
2021/12/24 09:36:51;;;;;;;;;;;;;;;21.87;19.73;97506.44;4976442;28;1902;-73
2021/12/24 09:39:16;;;;;;;;;;;;;;;21.97;19.68;97501.66;4979806;28;732;-72
2021/12/24 09:41:42;;;;;;;;;;;;;;;21.92;19.53;97496.59;4979780;28;735;-73
2021/12/24 09:44:08;;;;;;;;;;;;;;;21.63;19.97;97485.47;4979601;28;728;-73
2021/12/24 09:46:35;;;;;;;;;;;;;;;21.60;20.12;97489.97;4979997;28;772;-72
2021/12/24 09:49:01;;;;;;;;;;;;;;;21.89;19.84;97486.16;4979635;28;882;-73
2021/12/24 09:51:27;;;;;;;;;;;;;;;21.65;19.91;97466.75;4980056;28;891;-73
2021/12/24 09:53:52;;;;;;;;;;;;;;;21.41;20.40;97468.44;4979363;28;833;-75
2021/12/24 09:56:18;;;;;;;;;;;;;;;21.55;20.33;97463.06;4979684;28;1898;-74
2021/12/24 09:58:43;;;;;;;;;;;;;;;22.16;19.44;97454.44;4978139;28;1004;-74
2021/12/24 10:01:26;;;;;;;;;;;;;;;21.93;19.65;97452.84;4979930;28;948;-74
2021/12/24 10:03:58;;;;;;;;;;;;;;;21.67;20.08;97435.16;4979429;28;979;-74
2021/12/24 10:06:24;;;;;;;;;;;;;;;21.74;20.10;97424.34;4979773;28;851;-74
2021/12/24 10:08:58;;;;;;;;;;;;;;;22.09;19.37;97427.13;4979515;28;934;-74
2021/12/24 10:11:28;;;;;;;;;;;;;;;21.96;19.64;97423.56;4978304;28;1010;-74
2021/12/24 10:13:56;;;;;;;;;;;;;;;21.97;19.77;97419.50;4978017;28;1072;-74
2021/12/24 10:16:25;;;;;;;;;;;;;;;21.66;19.74;97423.06;4993447;28;2075;-74
2021/12/24 10:18:51;;;;;;;;;;;;;;;21.06;20.79;97415.38;4998785;28;1021;-74
2021/12/24 10:21:18;;;;;;;;;;;;;;;21.81;20.02;97411.97;4998988;28;986;-74
2021/12/24 10:23:46;;;;;;;;;;;;;;;21.14;20.75;97410.28;4998857;28;1092;-74
2021/12/24 10:26:12;;;;;;;;;;;;;;;22.19;19.64;97403.31;4998643;28;929;-74
2021/12/24 10:28:38;;;;;;;;;;;;;;;22.62;18.78;97398.78;4996442;28;937;-74
2021/12/24 10:31:03;;;;;;;;;;;;;;;21.85;19.81;97410.59;4998884;28;993;-74
2021/12/24 10:33:29;;;;;;;;;;;;;;;22.03;19.74;97414.81;4996692;28;1050;-74
2021/12/24 10:36:04;;;;;;;;;;;;;;;22.08;19.56;97402.91;5013568;28;1926;-74
2021/12/24 10:38:29;;;;;;;;;;;;;;;22.92;18.81;97390.72;4998441;28;941;-74
2021/12/24 10:40:57;;;;;;;;;;;;;;;22.30;19.27;97383.84;4998697;28;1006;-74
2021/12/24 10:43:23;;;;;;;;;;;;;;;21.82;19.87;97380.38;4998379;28;996;-74
2021/12/24 10:45:48;;;;;;;;;;;;;;;21.61;19.89;97369.06;4998581;28;954;-74
2021/12/24 10:48:19;;;;;;;;;;;;;;;21.39;19.51;97247.34;5000695;28;948;-74
2021/12/24 10:50:50;;;;;;;;;;;;;;;22.94;18.71;97362.66;4997624;28;944;-74
2021/12/24 10:55:48;;;;;;;;;;;;;;;21.91;19.93;97345.66;4998157;28;1903;-74
2021/12/24 10:58:15;;;;;;;;;;;;;;;22.30;19.44;97341.31;5013330;28;1043;-74
2021/12/24 11:00:42;;;;;;;;;;;;;;;22.94;18.80;97337.13;4995421;28;970;-74
2021/12/24 11:03:15;;;;;;;;;;;;;;;22.67;18.60;97332.94;4995862;28;1064;-74
2021/12/24 11:05:44;;;;;;;;;;;;;;;22.18;19.28;97322.38;4995894;28;1009;-74
2021/12/24 11:08:11;;;;;;;;;;;;;;;21.97;19.84;97317.53;4995991;28;1172;-74
2021/12/24 11:10:37;;;;;;;;;;;;;;;22.18;19.39;97316.72;4995444;28;1009;-74
2021/12/24 11:13:09;;;;;;;;;;;;;;;23.01;18.43;97314.13;4995380;28;1152;-74
2021/12/24 11:15:36;;;;;;;;;;;;;;;22.19;19.44;97306.97;4995266;28;1902;-74
2021/12/24 11:18:13;;;;;;;;;;;;;;;21.84;19.72;97304.22;4956509;29;1084;-74
2021/12/24 11:20:41;;;;;;;;;;;;;;;21.88;19.94;97304.09;4956756;29;1019;-74
2021/12/24 11:23:07;;;;;;;;;;;;;;;22.65;19.14;97309.94;4956641;29;1050;-74
2021/12/24 11:25:37;;;;;;;;;;;;;;;22.72;18.79;97309.63;4956683;29;1029;-74
2021/12/24 11:28:03;;;;;;;;;;;;;;;22.00;19.62;97303.22;4956307;29;1007;-74
2021/12/24 11:30:29;;;;;;;;;;;;;;;21.46;20.25;97306.53;4956604;29;1036;-74
2021/12/24 11:32:54;;;;;;;;;;;;;;;21.64;20.11;97298.13;4956311;29;1098;-74
2021/12/24 11:35:19;;;;;;;;;;;;;;;22.64;19.16;97285.69;4956885;29;990;-74
2021/12/24 11:37:45;;;;;;;;;;;;;;;22.75;18.62;97286.03;4956392;29;1922;-74
2021/12/24 11:40:13;;;;;;;;;;;;;;;22.16;19.67;97290.88;4924409;29;1012;-74
2021/12/24 11:42:40;;;;;;;;;;;;;;;21.77;20.23;97293.19;4956271;29;1067;-74
2021/12/24 11:45:07;;;;;;;;;;;;;;;21.85;20.06;97294.47;4972198;28;1104;-74
2021/12/24 11:47:33;;;;;;;;;;;;;;;22.92;18.92;97291.44;4956336;29;1025;-74
2021/12/24 11:50:01;;;;;;;;;;;;;;;22.48;19.03;97294.44;4993246;28;1143;-74
2021/12/24 11:52:29;;;;;;;;;;;;;;;21.83;19.66;97299.81;4997046;28;979;-74
2021/12/24 11:54:55;;;;;;;;;;;;;;;21.87;19.86;97296.09;4997106;28;952;-74
2021/12/24 11:57:22;;;;;;;;;;;;;;;22.06;19.73;97286.41;4994816;28;1906;-74
2021/12/24 11:59:48;;;;;;;;;;;;;;;22.86;18.79;97283.50;4997271;28;982;-74
2021/12/24 12:02:32;;;;;;;;;;;;;;;22.17;19.58;97286.00;4996866;28;947;-74
2021/12/24 12:05:17;;;;;;;;;;;;;;;21.65;20.03;97285.56;4996917;28;935;-74
2021/12/24 12:07:43;;;;;;;;;;;;;;;21.91;20.00;97285.38;4979276;28;1557;-74
2021/12/24 12:10:12;;;;;;;;;;;;;;;22.28;19.51;97275.81;4996566;28;954;-74
2021/12/24 12:12:38;;;;;;;;;;;;;;;21.64;20.28;97272.66;4994599;28;989;-74
2021/12/24 12:15:22;;;;;;;;;;;;;;;22.10;19.71;97270.88;4994521;28;1004;-74
2021/12/24 12:17:51;;;;;;;;;;;;;;;22.09;19.73;97266.44;4994588;28;1981;-74
2021/12/24 12:20:42;;;;;;;;;;;;;;;21.81;19.80;97268.38;4992295;28;1128;-74
2021/12/24 12:23:14;;;;;;;;;;;;;;;21.94;19.82;97261.81;4916766;29;1676;-74
2021/12/24 12:25:40;;;;;;;;;;;;;;;22.00;19.62;97254.28;4917195;29;1291;-74
2021/12/24 12:28:07;;;;;;;;;;;;;;;22.14;19.84;97265.06;4916973;29;1292;-74
2021/12/24 12:30:42;;;;;;;;;;;;;;;21.38;20.44;97259.91;4890196;29;1339;-74
2021/12/24 12:33:22;;;;;;;;;;;;;;;22.74;19.11;97255.28;4872297;29;1277;-75
2021/12/24 12:35:50;;;;;;;;;;;;;;;22.57;18.98;97249.13;4869140;29;1899;-74
2021/12/24 12:38:26;;;;;;;;;;;;;;;22.33;19.35;97248.91;4869979;29;1329;-74
2021/12/24 12:40:51;;;;;;;;;;;;;;;22.09;19.73;97251.47;4870853;29;1370;-75
2021/12/24 12:43:17;;;;;;;;;;;;;;;21.88;19.98;97252.34;4872940;29;1289;-74
2021/12/24 12:45:43;;;;;;;;;;;;;;;22.24;19.77;97252.50;4863333;29;1206;-74
2021/12/24 12:48:12;;;;;;;;;;;;;;;21.82;20.08;97240.84;4876826;29;1234;-74
2021/12/24 12:50:40;;;;;;;;;;;;;;;21.90;20.00;97244.94;4877188;29;1408;-73
2021/12/24 12:53:25;;;;;;;;;;;;;;;21.93;19.87;97231.91;4898325;29;1336;-74
2021/12/24 12:56:09;;;;;;;;;;;;;;;21.77;19.89;97242.22;4901622;29;1903;-73
2021/12/24 12:58:35;;;;;;;;;;;;;;;22.76;18.92;97235.75;4915323;29;1308;-73
2021/12/24 13:01:00;;;;;;;;;;;;;;;22.76;18.96;97235.75;4927364;29;1299;-74
2021/12/24 13:03:26;;;;;;;;;;;;;;;22.27;19.37;97231.72;4955107;29;1338;-74
2021/12/24 13:05:56;;;;;;;;;;;;;;;22.12;19.58;97239.22;4956324;28;1414;-73
2021/12/24 13:08:22;;;;;;;;;;;;;;;22.15;19.60;97243.19;4976514;28;1211;-74
2021/12/24 13:10:57;;;;;;;;;;;;;;;23.10;18.49;97243.19;4959212;28;1200;-73
2021/12/24 13:13:22;;;;;;;;;;;;;;;22.60;18.95;97242.50;4959302;28;1279;-74
2021/12/24 13:15:48;;;;;;;;;;;;;;;21.91;19.84;97234.41;4979565;28;1907;-75
2021/12/24 13:18:24;;;;;;;;;;;;;;;21.99;19.96;97236.50;4980305;28;1262;-75
2021/12/24 13:23:34;;;;;;;;;;;;;;;22.53;19.42;97234.28;4977459;28;1209;-74
2021/12/24 13:26:14;;;;;;;;;;;;;;;22.28;19.44;97236.16;4980099;28;1196;-73
2021/12/24 13:28:59;;;;;;;;;;;;;;;21.87;19.96;97225.28;4961741;28;1169;-75
2021/12/24 13:31:24;;;;;;;;;;;;;;;22.60;19.25;97231.19;4908671;29;1621;-75
2021/12/24 13:33:50;;;;;;;;;;;;;;;22.71;18.98;97228.66;4911570;29;1260;-74
2021/12/24 13:36:19;;;;;;;;;;;;;;;22.12;19.89;97227.91;4900883;29;1930;-74
2021/12/24 13:38:45;;;;;;;;;;;;;;;21.97;20.13;97226.91;4901393;29;1261;-74
2021/12/24 13:41:10;;;;;;;;;;;;;;;21.16;21.01;97226.72;4911027;29;1288;-74
2021/12/24 13:43:36;;;;;;;;;;;;;;;21.75;20.11;97227.72;4910158;29;1333;-74
2021/12/24 13:46:05;;;;;;;;;;;;;;;22.03;19.95;97219.34;4909289;29;1401;-74
2021/12/24 13:48:44;;;;;;;;;;;;;;;22.06;19.81;97224.84;4909773;29;1229;-74
2021/12/24 13:56:37;;;;;;;;;;;;;;;22.10;19.95;97219.06;4907671;29;1990;-74
2021/12/24 13:59:03;;;;;;;;;;;;;;;21.76;20.30;97206.66;4901282;29;1004;-74
2021/12/24 14:01:29;;;;;;;;;;;;;;;21.67;20.29;97209.44;4907864;29;1014;-74
2021/12/24 14:03:54;;;;;;;;;;;;;;;22.00;20.02;97212.56;4960638;29;971;-74
2021/12/24 14:06:20;;;;;;;;;;;;;;;23.03;18.98;97215.13;4960115;29;1123;-74
2021/12/24 14:08:45;;;;;;;;;;;;;;;22.39;19.53;97212.25;4960176;29;1022;-74
2021/12/24 14:11:12;;;;;;;;;;;;;;;22.01;20.01;97216.19;4960424;29;868;-74
2021/12/24 14:13:42;;;;;;;;;;;;;;;21.93;20.24;97203.59;4960452;29;1031;-74
2021/12/24 14:16:32;;;;;;;;;;;;;;;22.19;19.94;97216.28;4960025;29;1911;-74
2021/12/24 14:19:15;;;;;;;;;;;;;;;21.96;20.19;97219.63;4959813;29;895;-74
2021/12/24 14:21:50;;;;;;;;;;;;;;;21.82;20.04;97216.13;4943362;29;1038;-74
2021/12/24 14:24:16;;;;;;;;;;;;;;;21.91;20.00;97225.91;4970971;28;1325;-74
2021/12/24 14:26:51;;;;;;;;;;;;;;;21.72;20.57;97217.34;4977956;28;1054;-74
2021/12/24 14:29:23;;;;;;;;;;;;;;;22.78;19.20;97221.88;4979072;28;984;-74
2021/12/24 14:31:56;;;;;;;;;;;;;;;22.31;19.58;97218.19;4938134;29;1039;-74
2021/12/24 14:34:40;;;;;;;;;;;;;;;21.97;20.13;97210.69;4938504;29;975;-74
2021/12/24 14:37:26;;;;;;;;;;;;;;;21.85;20.40;97220.84;4938324;29;1981;-74
2021/12/24 14:39:53;;;;;;;;;;;;;;;22.57;19.53;97217.94;4938172;29;999;-74
2021/12/24 14:42:20;;;;;;;;;;;;;;;23.04;18.70;97225.22;4922415;29;1022;-74
2021/12/24 14:44:46;;;;;;;;;;;;;;;22.10;19.87;97221.88;4938041;29;943;-74
2021/12/24 14:47:11;;;;;;;;;;;;;;;21.88;20.04;97216.31;4900184;29;1019;-74
2021/12/24 14:49:38;;;;;;;;;;;;;;;21.92;20.13;97213.34;4900304;29;1044;-74
2021/12/24 14:52:16;;;;;;;;;;;;;;;22.99;19.24;97226.63;4900237;29;927;-74